Latest Weather Observations for Degrussa Aerodrome

IDW60801

Issued at 4:33 am WST Thursday 22 February 2018 (issued every 30 minutes, with the page automatically refreshed every 10 minutes)

About weather observations | Map of weather stations | Latest weather observations for WA | Other Formats
Station Details ID: 507500 Name: DEGRUSSA AERODROME Lat: -25.56 Lon: 119.29 Height: 550.91 m
Data from the previous 72 hours. | See also: Recent months for locations in Western Australia
Date/Time
WST
Temp
°C
App
Temp
°C
Dew
Point
°C
Rel
Hum
%
Delta-T
°C
Wind Press
QNH
hPa
Press
MSL
hPa
Rain since
9am
mm
Dir  Spd
km/h
Gust
km/h
Spd
kts
Gust
kts
22/04:30am 24.1 23.7 19.0 73 3.3 E 19 28 10 15 1008.5 1004.0 0.0
22/04:00am 24.3 24.2 18.7 71 3.6 E 17 22 9 12 1008.3 1003.8 0.0
22/03:30am 24.6 24.4 18.5 69 3.9 E 17 24 9 13 1008.1 1003.6 0.0
22/03:00am 25.0 24.4 18.4 66 4.3 ESE 19 28 10 15 1007.8 1003.3 0.0
22/02:30am 25.2 25.3 18.4 66 4.4 ESE 15 20 8 11 1007.7 1003.2 0.0
22/02:00am 25.7 25.8 18.4 64 4.7 ESE 15 20 8 11 1007.7 1003.2 0.0
22/01:30am 26.0 25.5 17.9 61 5.2 E 17 24 9 13 1007.5 1003.0 0.0
22/01:00am 26.2 25.7 17.0 57 5.9 ESE 15 20 8 11 1007.7 1003.2 0.0
22/12:30am 26.4 26.0 16.1 53 6.5 ESE 13 19 7 10 1007.8 1003.3 0.0
22/12:00am 26.5 26.0 14.9 49 7.2 ESE 11 15 6 8 1007.7 1003.2 0.0
 
Date/Time
WST
Temp
°C
App
Temp
°C
Dew
Point
°C
Rel
Hum
%
Delta-T
°C
Wind Press
QNH
hPa
Press
MSL
hPa
Rain since
9am
mm
Dir  Spd
km/h
Gust
km/h
Spd
kts
Gust
kts
21/11:30pm 27.2 26.2 14.6 46 7.8 ESE 13 19 7 10 1007.9 1003.4 0.0
21/11:00pm 27.4 26.6 14.1 44 8.1 ESE 11 13 6 7 1008.1 1003.6 0.0
21/10:30pm 27.9 27.2 14.2 43 8.4 SE 11 15 6 8 1008.0 1003.5 0.0
21/10:00pm 28.2 28.2 14.1 42 8.7 SE 7 11 4 6 1008.1 1003.6 0.0
21/09:30pm 28.7 28.3 14.1 40 9.0 SE 9 13 5 7 1007.9 1003.4 0.0
21/09:00pm 29.1 28.7 14.1 40 9.2 SE 9 15 5 8 1007.5 1003.0 0.0
21/08:30pm 29.7 28.6 14.3 39 9.5 SE 13 15 7 8 1007.5 1003.0 0.0
21/08:00pm 29.9 29.9 15.2 41 9.2 SE 9 11 5 6 1007.3 1002.9 0.0
21/07:30pm 30.0 30.6 15.7 42 9.0 SSE 7 9 4 5 1007.0 1002.5 0.0
21/07:00pm 30.8 31.7 16.0 40 9.4 SSW 6 7 3 4 1006.7 1002.2 0.0
21/06:30pm 31.5 31.7 14.6 36 10.6 SW 7 11 4 6 1006.4 1001.9 0.0
21/06:00pm 31.9 31.1 15.0 36 10.7 SW 13 20 7 11 1006.1 1001.6 0.0
21/05:30pm 32.2 30.7 14.3 33 11.2 SW 15 20 8 11 1005.9 1001.4 0.0
21/05:00pm 32.1 30.8 14.7 35 10.9 SW 15 22 8 12 1005.9 1001.4 0.0
21/04:30pm 32.1 31.3 16.0 38 10.3 SW 15 24 8 13 1005.8 1001.3 0.0
21/04:00pm 31.5 30.5 16.6 40 9.6 SSW 17 24 9 13 1005.9 1001.4 0.0
21/03:30pm 31.2 31.4 16.8 42 9.3 SW 11 20 6 11 1005.8 1001.3 0.0
21/03:00pm 31.6 30.8 16.0 39 10.0 SW 15 22 8 12 1005.9 1001.4 0.0
21/02:30pm 30.2 30.2 18.0 48 8.0 SW 15 22 8 12 1006.0 1001.5 0.0
21/02:00pm 30.2 31.3 19.6 53 7.1 WSW 13 20 7 11 1006.1 1001.6 0.0
21/01:30pm 28.7 30.8 19.3 56 6.2 SW 7 19 4 10 1006.3 1001.8 0.0
21/01:00pm 27.8 29.8 19.1 59 5.7 SW 7 15 4 8 1006.7 1002.2 0.0
21/12:30pm 27.5 29.6 19.3 61 5.4 WSW 7 15 4 8 1006.9 1002.4 0.0
21/12:00pm 26.9 28.9 18.7 60 5.4 SSW 6 15 3 8 1007.2 1002.7 0.0
21/11:30am 26.4 28.8 18.8 63 5.0 NNW 4 9 2 5 1007.5 1003.0 0.0
21/11:00am 24.8 26.4 18.3 67 4.2 SW 7 13 4 7 1007.8 1003.3 0.0
21/10:30am 24.4 26.7 18.6 70 3.8 SSW 4 9 2 5 1008.1 1003.6 0.0
21/10:29am 24.4 26.6 18.3 69 3.9 S 4 13 2 7 1008.1 1003.6 0.0
21/10:00am 24.0 25.8 18.4 71 3.6 SSE 6 13 3 7 1008.2 1003.7 0.0
21/09:30am 23.1 24.6 18.0 73 3.3 SE 7 13 4 7 1008.5 1004.0 0.0
21/09:00am 22.6 24.2 18.2 76 2.8 S 7 11 4 6 1008.4 1003.9 0.0
21/08:30am 22.0 23.5 18.0 78 2.5 SSE 7 15 4 8 1008.4 1003.9 0.0
21/08:00am 21.8 22.8 17.8 78 2.5 SE 9 13 5 7 1008.2 1003.7 0.0
21/07:30am 21.6 22.7 18.0 80 2.3 S 9 13 5 7 1008.0 1003.5 0.0
21/07:00am 21.3 22.0 17.9 81 2.2 S 11 17 6 9 1008.0 1003.5 0.0
21/06:30am 21.1 22.3 18.3 84 1.8 SSW 9 15 5 8 1007.7 1003.2 0.0
21/06:16am 21.1 22.7 18.3 84 1.8 S 7 11 4 6 1007.5 1003.0 0.0
21/06:15am 21.1 22.7 18.3 84 1.8 S 7 11 4 6 1007.5 1003.0 0.0
21/06:03am 21.2 22.4 18.2 83 1.9 SSE 9 13 5 7 1007.2 1002.7 0.0
21/06:00am 21.2 22.4 18.2 83 1.9 SSE 9 15 5 8 1007.1 1002.6 0.0
21/05:30am 21.3 22.2 18.5 84 1.8 SSE 11 15 6 8 1006.9 1002.4 0.0
21/05:00am 21.6 23.0 18.6 83 1.9 S 9 13 5 7 1007.0 1002.5 0.0
21/04:30am 22.1 22.6 18.3 79 2.4 SSE 13 17 7 9 1006.8 1002.3 0.0
21/04:00am 22.3 23.2 18.3 78 2.6 SSE 11 15 6 8 1006.7 1002.2 0.0
21/03:30am 22.9 22.6 18.2 75 3.0 SSE 17 26 9 14 1006.6 1002.1 0.0
21/03:00am 23.0 22.7 18.3 75 3.0 SE 17 30 9 16 1006.5 1002.0 0.0
21/02:30am 22.8 23.5 18.8 78 2.6 SSE 13 19 7 10 1006.7 1002.2 0.0
21/02:00am 23.0 23.6 18.5 76 2.9 SSE 13 20 7 11 1006.5 1002.0 0.0
21/01:30am 23.2 23.0 18.5 75 3.0 SSE 17 24 9 13 1006.6 1002.1 0.0
21/01:00am 23.5 23.3 18.6 74 3.2 SSE 17 22 9 12 1006.4 1001.9 0.0
21/12:30am 23.7 23.6 18.8 74 3.2 SSE 17 22 9 12 1006.6 1002.1 0.0
21/12:00am 24.0 21.9 18.9 73 3.3 SSE 28 37 15 20 1006.5 1002.0 0.0
 
Date/Time
WST
Temp
°C
App
Temp
°C
Dew
Point
°C
Rel
Hum
%
Delta-T
°C
Wind Press
QNH
hPa
Press
MSL
hPa
Rain since
9am
mm
Dir  Spd
km/h
Gust
km/h
Spd
kts
Gust
kts
20/11:30pm 24.6 24.3 19.2 72 3.5 SSE 19 26 10 14 1006.8 1002.3 0.0
20/11:00pm 25.1 23.4 19.0 69 4.0 SSE 26 33 14 18 1006.9 1002.4 0.0
20/10:30pm 25.8 24.7 18.7 65 4.6 SE 22 30 12 16 1006.7 1002.2 0.0
20/10:00pm 26.3 24.9 18.7 63 5.0 SSE 24 35 13 19 1006.8 1002.3 0.0
20/09:30pm 26.9 25.6 19.0 62 5.2 SE 24 33 13 18 1006.4 1001.9 0.0
20/09:00pm 27.5 25.3 18.8 59 5.7 SE 28 39 15 21 1006.1 1001.6 0.0
20/08:30pm 28.3 26.9 18.7 56 6.3 SE 24 35 13 19 1005.9 1001.4 0.0
20/08:00pm 28.9 26.9 18.4 53 6.9 SSE 26 39 14 21 1006.0 1001.5 0.0
20/07:30pm 29.7 28.5 18.5 51 7.4 SSE 22 32 12 17 1005.8 1001.3 0.0
20/07:00pm 30.3 28.6 18.1 48 8.0 SSE 24 33 13 18 1005.3 1000.8 0.0
20/06:30pm 30.9 28.3 17.9 45 8.5 SSE 28 37 15 20 1004.9 1000.4 0.0
20/06:00pm 31.9 28.8 17.4 42 9.5 SSE 30 44 16 24 1004.5 1000.0 0.0
20/05:30pm 32.6 29.6 16.8 38 10.2 S 28 37 15 20 1004.2 999.7 0.0
20/05:00pm 32.8 30.0 17.4 39 10.1 S 28 41 15 22 1004.0 999.5 0.0
20/04:30pm 33.4 30.3 17.5 38 10.4 S 30 43 16 23 1004.1 999.6 0.0
20/04:00pm 33.7 30.6 17.4 37 10.7 S 30 41 16 22 1004.0 999.5 0.0
20/03:30pm 33.5 30.1 17.6 38 10.4 S 32 39 17 21 1004.0 999.5 0.0
20/03:00pm 33.8 31.0 18.3 39 10.3 S 30 43 16 23 1004.0 999.5 0.0
20/02:30pm 33.5 30.6 18.8 41 9.8 S 32 41 17 22 1004.3 999.8 0.0
20/02:00pm 33.2 32.2 19.7 45 9.1 S 24 35 13 19 1004.5 1000.0 0.0
20/01:30pm 32.7 31.8 19.9 46 8.6 SSW 24 43 13 23 1004.7 1000.2 0.0
20/01:00pm 31.9 31.5 20.2 50 7.9 S 22 32 12 17 1005.1 1000.6 0.0
20/12:30pm 31.6 31.2 20.2 50 7.7 S 22 35 12 19 1005.6 1001.0 0.0
20/12:00pm 31.6 31.0 20.5 51 7.6 S 24 37 13 20 1005.7 1001.2 0.0
20/11:30am 31.3 31.5 20.6 53 7.3 SSE 20 28 11 15 1006.1 1001.6 0.0
20/11:00am 29.9 29.2 20.2 56 6.5 SSE 24 30 13 16 1006.4 1001.9 0.0
20/10:30am 30.5 30.9 20.7 55 6.6 SE 19 30 10 16 1006.6 1002.1 0.0
20/10:00am 29.8 30.5 21.2 60 5.9 SSE 19 28 10 15 1006.8 1002.3 0.0
20/09:30am 28.3 28.1 20.6 63 5.2 SSE 22 32 12 17 1006.9 1002.4 0.0
20/09:00am 27.6 29.3 22.3 73 3.7 SSE 17 26 9 14 1007.1 1002.6 0.0
20/08:43am 26.9 27.5 21.4 72 3.7 SSE 20 28 11 15 1007.1 1002.6 0.0
20/08:31am 27.0 27.8 21.7 73 3.6 SSE 20 30 11 16 1007.1 1002.6 0.0
20/08:30am 26.9 27.9 22.1 75 3.3 SSE 20 30 11 16 1007.1 1002.6 0.0
20/08:00am 25.5 26.6 22.4 83 2.1 S 20 26 11 14 1007.1 1002.6 0.0
20/07:30am 25.2 27.0 22.5 85 1.9 S 17 22 9 12 1007.1 1002.6 0.0
20/07:00am 24.6 27.1 22.5 88 1.4 S 13 22 7 12 1006.9 1002.4 0.0
20/06:30am 23.4 26.5 22.2 93 0.8 S 9 13 5 7 1006.6 1002.1 0.0
20/06:00am 23.2 27.0 22.4 95 0.5 S 6 7 3 4 1006.2 1001.7 0.0
20/05:30am 23.3 27.2 22.5 95 0.5 S 6 7 3 4 1006.0 1001.5 0.0
20/05:00am 23.4 27.2 22.4 94 0.7 S 6 9 3 5 1005.8 1001.3 0.0
20/04:30am 23.6 26.8 22.4 93 0.8 SSW 9 11 5 6 1005.7 1001.2 0.0
20/04:00am 23.7 27.0 22.5 93 0.8 SSW 9 11 5 6 1005.6 1001.0 0.0
20/03:30am 24.0 27.7 22.3 90 1.2 SSW 6 9 3 5 1005.3 1000.8 0.0
20/03:00am 24.4 28.4 22.1 87 1.6 SSE 4 6 2 3 1005.1 1000.6 0.0
20/02:30am 24.7 27.9 21.6 83 2.1 SE 7 9 4 5 1005.0 1000.5 0.0
20/02:00am 25.0 27.9 21.7 82 2.2 ESE 9 11 5 6 1005.1 1000.6 0.0
20/01:30am 25.2 27.7 21.7 81 2.4 SE 11 15 6 8 1005.0 1000.5 0.0
20/01:00am 25.4 28.3 21.7 80 2.5 ESE 9 15 5 8 1005.0 1000.5 0.0
20/12:30am 24.9 28.6 22.2 85 1.8 SE 6 9 3 5 1005.0 1000.5 0.0
20/12:00am 24.8 28.7 22.5 87 1.6 SSE 6 9 3 5 1005.4 1000.9 0.0
 
Date/Time
WST
Temp
°C
App
Temp
°C
Dew
Point
°C
Rel
Hum
%
Delta-T
°C
Wind Press
QNH
hPa
Press
MSL
hPa
Rain since
9am
mm
Dir  Spd
km/h
Gust
km/h
Spd
kts
Gust
kts
19/11:30pm 25.0 27.2 21.9 83 2.1 S 13 19 7 10 1005.6 1001.0 0.0
19/11:00pm 24.5 27.8 22.6 89 1.3 SSW 9 15 5 8 1006.3 1001.8 0.0
19/10:30pm 23.9 27.1 22.3 91 1.1 SW 9 13 5 7 1006.0 1001.5 0.0
19/10:00pm 24.0 28.2 21.7 87 1.6 ESE 2 4 1 2 1006.1 1001.6 0.0
19/09:30pm 23.7 26.0 22.0 90 1.2 SW 13 24 7 13 1006.0 1001.5 0.0
19/09:05pm 24.1 22.6 21.8 87 1.6 SW 32 50 17 27 1006.5 1002.0 0.0
19/09:00pm 24.2 21.7 21.7 86 1.7 SW 37 50 20 27 1006.4 1001.9 0.0
19/08:59pm 24.2 21.6 21.5 85 1.8 SW 37 50 20 27 1006.3 1001.8 0.0
19/08:38pm 27.8 28.2 20.9 66 4.7 SSE 20 56 11 30 1006.1 1001.6 0.0
19/08:30pm 28.1 28.2 20.4 63 5.2 ESE 20 30 11 16 1005.3 1000.8 0.0
19/08:17pm 28.5 27.1 20.5 62 5.4 ESE 28 41 15 22 1005.0 1000.5 0.0
19/08:00pm 30.0 31.3 20.8 57 6.3 ESE 15 22 8 12 1004.6 1000.1 0.0
19/07:30pm 29.7 32.1 20.8 58 6.0 SE 9 20 5 11 1004.5 1000.0 0.0
19/07:00pm 28.7 32.7 22.0 67 4.6 SW 4 7 2 4 1004.1 999.6 0.0
19/06:30pm 31.3 32.2 20.9 54 7.1 SE 17 24 9 13 1003.2 998.7 0.0
19/06:00pm 31.3 31.8 21.2 55 6.9 E 20 28 11 15 1002.6 998.1 0.0
19/05:30pm 33.7 34.2 20.1 44 9.2 S 17 22 9 12 1002.2 997.6 0.0
19/05:00pm 33.4 34.0 20.2 46 9.0 S 17 24 9 13 1002.3 997.8 0.0
19/04:30pm 32.8 33.4 20.3 47 8.5 S 17 22 9 12 1002.4 997.9 0.0
19/04:00pm 33.8 33.6 19.8 43 9.5 SSW 20 30 11 16 1002.3 997.8 0.0
19/03:30pm 33.8 35.0 20.6 46 9.0 SW 15 24 8 13 1002.3 997.8 0.0
19/03:00pm 33.4 35.1 20.2 46 9.0 S 11 22 6 12 1002.5 998.0 0.0
19/02:30pm 32.6 35.0 20.8 49 8.1 SW 9 19 5 10 1002.9 998.4 0.0
19/02:00pm 31.8 34.7 21.0 52 7.4 SW 7 13 4 7 1003.3 998.8 0.0
19/01:30pm 31.4 33.4 20.7 53 7.3 SW 11 19 6 10 1003.9 999.3 0.0
19/01:00pm 30.9 33.0 20.2 53 7.2 SW 9 19 5 10 1004.2 999.7 0.0
19/12:30pm 31.3 34.1 21.5 56 6.7 SW 9 13 5 7 1004.5 1000.0 0.0
19/12:00pm 30.7 33.7 20.9 56 6.7 NNW 6 15 3 8 1004.9 1000.4 0.0
19/11:30am 29.6 32.2 20.5 58 6.1 SSE 7 11 4 6 1005.4 1000.9 0.0
19/11:00am 29.7 32.5 20.5 57 6.2 SSE 6 13 3 7 1005.8 1001.3 0.0
19/10:30am 28.5 31.2 20.2 60 5.6 E 6 13 3 7 1006.2 1001.7 0.0
19/10:00am 28.1 31.5 20.9 65 4.9 E 4 9 2 5 1006.4 1001.9 0.0
19/09:30am 27.9 31.0 21.4 67 4.4 ENE 7 15 4 8 1006.5 1002.0 0.0
19/09:05am 27.3 30.0 21.3 69 4.1 NE 9 19 5 10 1006.5 1002.0 0.0
19/09:00am 27.0 29.8 21.5 72 3.7 NE 9 15 5 8 1006.5 1002.0 6.4
19/08:30am 26.7 29.1 21.5 73 3.5 ENE 11 17 6 9 1006.4 1001.9 6.4
19/08:00am 25.6 27.1 21.3 77 2.9 E 15 22 8 12 1006.4 1001.9 6.4
19/07:54am 25.5 27.2 21.6 79 2.6 E 15 22 8 12 1006.4 1001.9 6.4
19/07:30am 25.4 27.5 21.7 80 2.5 E 13 19 7 10 1006.3 1001.8 6.4
19/07:00am 24.6 27.0 21.5 83 2.1 E 11 17 6 9 1006.3 1001.8 6.4
19/06:30am 23.8 26.9 21.5 87 1.6 ESE 7 11 4 6 1006.3 1001.8 6.4
19/06:00am 23.3 26.5 21.7 91 1.1 ESE 7 11 4 6 1006.1 1001.6 6.4
19/05:30am 23.5 26.4 21.8 90 1.1 ESE 9 13 5 7 1006.0 1001.5 6.4
19/05:00am 23.5 26.0 21.8 90 1.2 ESE 11 15 6 8 1005.7 1001.2 6.4

Other Formats:

Comma delimited format used in spreadsheet applications
http://www.bom.gov.au/fwo/IDW60801/IDW60801.99400.axf

JavaScript Object Notation format (JSON) in row-major order
http://www.bom.gov.au/fwo/IDW60801/IDW60801.99400.json